Time;durP1;ratioP1;P1;durP2;ratioP2;P2;SDS_P1;SDS_P2;PMS_P1;PMS_P2;Temp;Humidity;BMP_temperature;BMP_pressure;BME280_temperature;BME280_humidity;BME280_pressure;Samples;Min_cycle;Max_cycle;Signal;HPM_P1;HPM_P2
2022/05/05 00:01:24;;;;;;;3.60;1.30;;;;;;;23.89;38.09;100640.06;4969946;28;20050;-76
2022/05/05 00:03:53;;;;;;;5.90;1.40;;;;;;;23.82;37.37;100635.84;4971508;28;20054;-75
2022/05/05 00:06:23;;;;;;;5.03;1.23;;;;;;;23.73;37.64;100625.47;4969550;28;20143;-75
2022/05/05 00:08:51;;;;;;;6.53;1.55;;;;;;;23.68;40.56;100622.09;4969960;28;20141;-75
2022/05/05 00:16:50;;;;;;;4.30;1.45;;;;;;;23.56;38.80;100608.31;4970956;28;20519;-74
2022/05/05 00:19:19;;;;;;;4.82;1.27;;;;;;;23.49;38.43;100603.25;4970789;28;20129;-73
2022/05/05 00:21:49;;;;;;;3.38;1.35;;;;;;;23.35;37.69;100591.25;4970942;28;20134;-74
2022/05/05 00:24:17;;;;;;;3.03;1.40;;;;;;;23.26;39.04;100598.56;4970463;28;20137;-74
2022/05/05 00:26:46;;;;;;;2.80;1.45;;;;;;;23.18;39.24;100596.09;4971657;28;20126;-75
2022/05/05 00:29:15;;;;;;;3.63;1.38;;;;;;;23.02;39.03;100595.66;4972548;28;20059;-74
2022/05/05 00:31:44;;;;;;;3.20;1.35;;;;;;;22.96;39.19;100593.97;4970472;28;20046;-74
2022/05/05 00:34:13;;;;;;;2.83;1.13;;;;;;;22.86;39.89;100588.94;4970309;28;20108;-75
2022/05/05 00:36:41;;;;;;;5.85;1.38;;;;;;;22.84;40.81;100590.75;4970677;28;20055;-75
2022/05/05 00:39:12;;;;;;;6.15;1.63;;;;;;;22.82;40.72;100576.75;4970864;28;20106;-74
2022/05/05 00:41:43;;;;;;;2.05;1.13;;;;;;;22.85;40.92;100584.59;4969799;28;20074;-74
2022/05/05 00:44:12;;;;;;;4.10;1.45;;;;;;;22.84;40.94;100577.56;4970476;28;20054;-74
2022/05/05 00:46:41;;;;;;;7.72;1.60;;;;;;;22.82;41.04;100577.63;4968476;28;20734;-73
2022/05/05 00:49:09;;;;;;;4.82;1.65;;;;;;;22.79;42.14;100577.66;4970794;28;20413;-72
2022/05/05 00:51:38;;;;;;;6.78;2.35;;;;;;;22.80;41.72;100568.88;4970149;28;20055;-72
2022/05/05 00:54:06;;;;;;;4.65;1.88;;;;;;;22.82;42.17;100566.19;4970576;28;20134;-73
2022/05/05 00:56:38;;;;;;;5.10;1.67;;;;;;;22.84;42.61;100561.72;4970170;28;20145;-73
2022/05/05 00:59:07;;;;;;;4.18;1.60;;;;;;;22.85;42.88;100556.44;4970681;28;20055;-72
2022/05/05 01:01:35;;;;;;;2.35;1.45;;;;;;;22.87;42.88;100553.75;4970146;28;20385;-73
2022/05/05 01:04:07;;;;;;;5.85;1.40;;;;;;;22.82;42.84;100548.59;4970117;28;20058;-74
2022/05/05 01:06:36;;;;;;;3.22;1.20;;;;;;;22.73;41.82;100552.31;4968913;28;20058;-74
2022/05/05 01:09:05;;;;;;;2.88;1.10;;;;;;;22.70;42.23;100552.41;4970130;28;20086;-74
2022/05/05 01:11:35;;;;;;;2.28;0.93;;;;;;;22.70;41.92;100557.69;4970261;28;20081;-72
2022/05/05 01:14:04;;;;;;;4.10;1.30;;;;;;;22.70;41.74;100552.41;4970255;28;20154;-75
2022/05/05 01:16:33;;;;;;;2.95;1.20;;;;;;;22.63;42.22;100556.09;4970609;28;20062;-73
2022/05/05 01:19:01;;;;;;;3.60;1.17;;;;;;;22.60;42.50;100545.59;4971961;28;20516;-75
2022/05/05 01:21:32;;;;;;;4.60;1.20;;;;;;;22.57;41.74;100540.41;4969100;28;20057;-74
2022/05/05 01:24:00;;;;;;;4.53;1.40;;;;;;;22.54;42.85;100540.44;4969562;28;20102;-73
2022/05/05 01:29:14;;;;;;;4.82;1.33;;;;;;;22.31;43.61;100533.97;4969789;28;20065;-73
2022/05/05 01:31:44;;;;;;;5.95;1.60;;;;;;;22.28;45.29;100526.09;4967322;28;20086;-72
2022/05/05 01:34:13;;;;;;;3.90;1.38;;;;;;;22.17;44.72;100518.44;4969666;28;20053;-72
2022/05/05 01:36:43;;;;;;;4.00;1.20;;;;;;;22.10;44.41;100524.72;4969027;28;20547;-71
2022/05/05 01:39:12;;;;;;;2.10;1.13;;;;;;;22.10;45.56;100519.44;4968536;28;20520;-73
2022/05/05 01:41:40;;;;;;;2.28;1.00;;;;;;;22.05;45.96;100521.31;4968972;28;20062;-72
2022/05/05 01:44:09;;;;;;;2.60;1.50;;;;;;;22.02;45.46;100520.53;4969064;28;20500;-73
2022/05/05 01:46:37;;;;;;;3.50;1.15;;;;;;;21.95;44.89;100519.78;4967994;28;20086;-72
2022/05/05 01:49:06;;;;;;;5.38;1.60;;;;;;;21.92;47.75;100515.47;4968017;28;20058;-72
2022/05/05 01:51:34;;;;;;;5.72;1.50;;;;;;;21.80;46.18;100513.06;4950036;29;20062;-72
2022/05/05 01:54:04;;;;;;;6.38;1.30;;;;;;;21.81;47.28;100513.94;4949622;28;20143;-71
2022/05/05 01:56:33;;;;;;;3.30;1.10;;;;;;;21.81;46.80;100520.09;4950230;29;20055;-71
2022/05/05 01:59:01;;;;;;;4.30;1.25;;;;;;;21.86;46.58;100515.56;4950584;29;20110;-72
2022/05/05 02:01:30;;;;;;;4.43;1.45;;;;;;;21.89;46.56;100514.63;4949926;29;20051;-71
2022/05/05 02:04:00;;;;;;;6.13;1.05;;;;;;;21.92;45.95;100510.19;4949957;29;20078;-71
2022/05/05 02:06:29;;;;;;;4.38;1.15;;;;;;;21.95;46.25;100510.13;4950102;29;20091;-72
2022/05/05 02:08:58;;;;;;;5.43;1.20;;;;;;;21.98;46.66;100500.41;4949957;29;20063;-71
2022/05/05 02:11:29;;;;;;;4.32;1.33;;;;;;;21.99;46.56;100491.59;4953181;29;20050;-72
2022/05/05 02:13:57;;;;;;;6.05;1.25;;;;;;;21.94;47.05;100495.22;4951183;29;20083;-72
2022/05/05 02:16:26;;;;;;;4.75;1.50;;;;;;;21.87;46.96;100501.50;4952395;28;20198;-71
2022/05/05 02:18:54;;;;;;;2.53;1.00;;;;;;;21.82;47.31;100495.47;4969290;28;20129;-72
2022/05/05 02:21:23;;;;;;;3.53;1.30;;;;;;;21.77;47.39;100493.84;4956851;28;20060;-72
2022/05/05 02:23:51;;;;;;;3.40;1.45;;;;;;;21.72;47.35;100491.31;4963220;28;20203;-71
2022/05/05 02:26:20;;;;;;;3.97;1.17;;;;;;;21.70;46.33;100493.97;4969327;28;20070;-70
2022/05/05 02:28:50;;;;;;;4.68;1.67;;;;;;;21.67;46.88;100495.78;4968498;28;20664;-70
2022/05/05 02:31:19;;;;;;;6.03;1.40;;;;;;;21.65;46.33;100492.34;4969392;28;20101;-71
2022/05/05 02:33:47;;;;;;;6.68;1.60;;;;;;;21.60;46.14;100491.53;4967816;28;20113;-70
2022/05/05 02:39:00;;;;;;;5.85;1.52;;;;;;;21.44;46.44;100491.84;4973448;28;20116;-71
2022/05/05 02:41:29;;;;;;;4.18;1.38;;;;;;;21.40;46.45;100490.19;4972609;28;20046;-71
2022/05/05 02:43:59;;;;;;;3.47;1.45;;;;;;;21.35;46.65;100492.00;4972094;28;20093;-73
2022/05/05 02:46:27;;;;;;;4.45;1.42;;;;;;;21.30;46.72;100493.84;4972196;28;20057;-72
2022/05/05 02:48:56;;;;;;;8.55;1.30;;;;;;;21.26;46.64;100492.19;4972796;28;20098;-71
2022/05/05 02:51:28;;;;;;;3.80;1.55;;;;;;;21.19;47.63;100491.44;4972687;28;20082;-73
2022/05/05 02:56:41;;;;;;;3.58;1.00;;;;;;;20.96;47.89;100491.84;4972901;28;20065;-72
2022/05/05 02:59:11;;;;;;;3.38;1.40;;;;;;;20.88;49.20;100493.72;4971954;28;20047;-73
2022/05/05 03:01:40;;;;;;;4.05;1.63;;;;;;;20.74;51.59;100493.97;4972086;28;20144;-73
2022/05/05 03:04:08;;;;;;;4.05;1.40;;;;;;;20.59;48.87;100492.47;4973192;28;20504;-69
2022/05/05 03:06:37;;;;;;;4.03;1.20;;;;;;;20.40;50.44;100489.19;4974419;28;20054;-70
2022/05/05 03:09:05;;;;;;;4.30;1.25;;;;;;;20.22;50.30;100490.31;4972826;28;20102;-72
2022/05/05 03:11:34;;;;;;;5.70;1.30;;;;;;;20.09;51.61;100491.41;4972530;28;20114;-72
2022/05/05 03:14:02;;;;;;;4.22;1.23;;;;;;;19.98;52.05;100491.56;4972460;28;20193;-72
2022/05/05 03:16:35;;;;;;;6.13;1.35;;;;;;;19.86;52.73;100489.97;4972655;28;20059;-71
2022/05/05 03:19:04;;;;;;;6.75;1.80;;;;;;;19.79;53.01;100488.31;4953062;29;20054;-71
2022/05/05 03:21:32;;;;;;;3.88;1.42;;;;;;;19.71;54.24;100487.53;4951870;29;20050;-72
2022/05/05 03:24:00;;;;;;;6.82;1.40;;;;;;;19.61;54.62;100488.50;4967313;28;20097;-72
2022/05/05 03:26:29;;;;;;;5.63;1.30;;;;;;;19.52;55.05;100491.25;4970924;28;20046;-71
2022/05/05 03:28:58;;;;;;;5.22;1.30;;;;;;;19.37;55.02;100477.38;4971369;28;20699;-73
2022/05/05 03:31:27;;;;;;;4.68;1.30;;;;;;;19.37;54.99;100487.88;4971532;28;20187;-72
2022/05/05 03:33:57;;;;;;;7.07;1.60;;;;;;;19.25;56.36;100488.88;4971643;28;20559;-73
2022/05/05 03:36:25;;;;;;;4.53;1.30;;;;;;;19.15;56.82;100495.13;4970394;28;20068;-72
2022/05/05 03:38:54;;;;;;;5.85;1.38;;;;;;;19.07;56.68;100498.69;4971906;28;20062;-72
2022/05/05 03:41:23;;;;;;;4.03;1.58;;;;;;;18.99;56.90;100502.25;4971022;28;20173;-72
2022/05/05 03:43:52;;;;;;;3.80;1.33;;;;;;;18.92;57.17;100502.31;4971552;28;20130;-73
2022/05/05 03:46:20;;;;;;;6.53;1.20;;;;;;;18.81;58.25;100502.44;4970944;28;20089;-73
2022/05/05 03:48:48;;;;;;;3.63;1.30;;;;;;;18.72;56.65;100499.84;4971988;28;20047;-73
2022/05/05 03:51:19;;;;;;;3.22;1.30;;;;;;;18.62;55.86;100492.06;4971650;28;20050;-72
2022/05/05 03:53:47;;;;;;;5.95;1.60;;;;;;;18.58;55.80;100495.56;4971301;28;20113;-71
2022/05/05 03:56:15;;;;;;;3.03;1.20;;;;;;;18.54;56.13;100498.22;4971954;28;20137;-72
2022/05/05 03:58:44;;;;;;;4.25;1.67;;;;;;;18.53;56.26;100504.34;4974675;28;20051;-72
2022/05/05 04:01:12;;;;;;;4.35;1.60;;;;;;;18.45;55.12;100499.16;4971506;28;20153;-71
2022/05/05 04:03:43;;;;;;;4.80;1.70;;;;;;;18.39;54.97;100505.31;4971550;28;20489;-72
2022/05/05 04:06:13;;;;;;;3.15;1.30;;;;;;;18.36;54.05;100507.09;4971654;28;20069;-71
2022/05/05 04:08:43;;;;;;;7.43;1.50;;;;;;;18.34;53.46;100506.22;4970359;28;20090;-72
2022/05/05 04:11:11;;;;;;;4.22;1.27;;;;;;;18.30;53.59;100514.97;4971423;28;20054;-72
2022/05/05 04:13:40;;;;;;;3.63;1.05;;;;;;;18.27;53.10;100513.25;4970346;28;20047;-72
2022/05/05 04:16:16;;;;;;;4.43;1.48;;;;;;;18.24;52.98;100520.25;4972976;28;20054;-72
2022/05/05 04:18:44;;;;;;;2.90;1.05;;;;;;;18.21;52.66;100515.91;4970576;28;20062;-71
2022/05/05 04:21:13;;;;;;;4.50;1.30;;;;;;;18.15;51.92;100516.81;4970543;28;20051;-72
2022/05/05 04:23:44;;;;;;;4.18;1.10;;;;;;;18.10;51.73;100513.34;4970311;28;20050;-72
2022/05/05 04:26:14;;;;;;;7.35;1.60;;;;;;;18.07;52.96;100522.97;4970578;28;20061;-72
2022/05/05 04:28:44;;;;;;;3.17;1.05;;;;;;;18.05;52.40;100520.38;4970554;28;20051;-70
2022/05/05 04:31:16;;;;;;;3.08;1.10;;;;;;;18.01;53.32;100518.63;4970706;28;20042;-71
2022/05/05 04:33:45;;;;;;;;;;;;;;;17.91;52.40;100512.56;4970720;28;20046;-72
2022/05/05 04:36:14;;;;;;;3.20;1.10;;;;;;;17.80;53.40;100509.97;4970348;28;20017;-71
2022/05/05 04:38:44;;;;;;;6.20;1.25;;;;;;;17.75;53.52;100513.47;4970058;28;20050;-71
2022/05/05 04:41:12;;;;;;;4.72;1.55;;;;;;;17.71;56.57;100520.47;4971154;28;20050;-72
2022/05/05 04:43:41;;;;;;;3.67;1.30;;;;;;;17.64;53.58;100512.63;4969541;28;20118;-71
2022/05/05 04:46:09;;;;;;;4.28;1.10;;;;;;;17.55;54.95;100513.56;4970539;28;20086;-71
2022/05/05 04:48:38;;;;;;;5.40;1.05;;;;;;;17.46;55.81;100524.03;4970285;28;20552;-71
2022/05/05 04:51:06;;;;;;;2.70;1.00;;;;;;;17.38;57.25;100522.31;4970865;28;20070;-71
2022/05/05 04:53:35;;;;;;;4.25;1.08;;;;;;;17.27;54.54;100526.69;4973330;28;20051;-72
2022/05/05 04:56:05;;;;;;;4.78;0.98;;;;;;;17.19;55.36;100531.06;4970840;28;20142;-71
2022/05/05 04:58:34;;;;;;;4.63;1.15;;;;;;;17.12;57.47;100526.69;4970319;28;20101;-70
2022/05/05 05:01:03;;;;;;;4.60;1.13;;;;;;;17.06;55.58;100529.31;4969472;28;20055;-71
2022/05/05 05:03:35;;;;;;;3.63;1.20;;;;;;;17.02;56.74;100525.84;4968675;28;20050;-70
2022/05/05 05:06:04;;;;;;;7.22;1.40;;;;;;;16.98;55.38;100520.63;4969968;28;20062;-71
2022/05/05 05:08:33;;;;;;;7.25;1.30;;;;;;;16.95;55.16;100522.38;4970131;28;20054;-71
2022/05/05 05:11:01;;;;;;;2.47;0.90;;;;;;;16.92;54.56;100513.63;4969518;28;20283;-71
2022/05/05 05:13:32;;;;;;;2.28;1.17;;;;;;;16.88;55.72;100512.78;4969796;28;20086;-71
2022/05/05 05:16:00;;;;;;;7.47;1.15;;;;;;;16.88;57.33;100515.41;4970649;28;20063;-70
2022/05/05 05:18:29;;;;;;;3.28;0.98;;;;;;;16.89;59.37;100511.91;4969322;28;20074;-71
2022/05/05 05:20:57;;;;;;;5.68;0.90;;;;;;;16.91;62.26;100509.31;4970371;28;20153;-70
2022/05/05 05:23:25;;;;;;;2.70;1.02;;;;;;;16.88;59.70;100512.78;4969483;28;20047;-70
2022/05/05 05:25:54;;;;;;;5.10;1.33;;;;;;;16.84;60.37;100511.03;4969912;28;20066;-70
2022/05/05 05:28:22;;;;;;;2.83;1.10;;;;;;;16.79;60.73;100512.78;4969888;28;20055;-70
2022/05/05 05:30:53;;;;;;;5.38;1.10;;;;;;;16.75;60.99;100514.47;4970310;28;20047;-71
2022/05/05 05:33:21;;;;;;;3.20;1.02;;;;;;;16.72;60.76;100509.28;4969851;28;20536;-70
2022/05/05 05:35:50;;;;;;;2.92;1.10;;;;;;;16.69;62.27;100508.38;4969737;28;20125;-70
2022/05/05 05:38:20;;;;;;;2.83;0.90;;;;;;;16.64;60.61;100516.22;4970173;28;20047;-71
2022/05/05 05:40:49;;;;;;;2.45;0.90;;;;;;;16.58;63.52;100510.09;4969802;28;20500;-70
2022/05/05 05:43:17;;;;;;;2.08;0.73;;;;;;;16.50;68.26;100508.38;4969887;28;20051;-70
2022/05/05 05:45:46;;;;;;;3.20;1.00;;;;;;;16.43;65.23;100510.97;4969485;28;20142;-70
2022/05/05 05:48:16;;;;;;;3.35;1.02;;;;;;;16.33;59.85;100510.06;4972115;28;20134;-70
2022/05/05 05:50:45;;;;;;;3.38;0.85;;;;;;;16.22;58.98;100506.59;4970177;28;20106;-70
2022/05/05 05:53:13;;;;;;;3.55;1.05;;;;;;;16.15;62.33;100504.81;4969413;28;20217;-70
2022/05/05 05:55:42;;;;;;;2.58;0.85;;;;;;;16.02;58.43;100515.22;4969567;28;20054;-71
2022/05/05 05:58:10;;;;;;;4.47;1.13;;;;;;;15.89;58.51;100516.03;4969431;28;20129;-70
2022/05/05 06:00:39;;;;;;;3.25;0.90;;;;;;;15.81;59.64;100520.38;4969736;28;20054;-72
2022/05/05 06:05:54;;;;;;;1.85;0.77;;;;;;;15.55;55.72;100523.66;4969029;28;20085;-72
2022/05/05 06:08:22;;;;;;;2.33;0.75;;;;;;;15.44;53.52;100520.16;4968935;28;20104;-71
2022/05/05 06:10:51;;;;;;;2.97;1.02;;;;;;;15.38;51.70;100525.31;4972017;28;20047;-72
2022/05/05 06:13:19;;;;;;;2.50;0.80;;;;;;;15.29;50.11;100526.13;4972772;28;20075;-72
2022/05/05 06:15:48;;;;;;;3.97;0.80;;;;;;;15.20;49.68;100524.31;4973855;28;20054;-72
2022/05/05 06:18:16;;;;;;;2.22;1.02;;;;;;;15.13;50.01;100525.16;4973182;28;20146;-71
2022/05/05 06:20:45;;;;;;;2.60;0.80;;;;;;;15.10;49.39;100527.75;4972981;28;20117;-71
2022/05/05 06:23:16;;;;;;;1.63;0.80;;;;;;;15.06;48.73;100524.22;4972548;28;20084;-70
2022/05/05 06:25:44;;;;;;;3.92;0.98;;;;;;;15.03;49.61;100520.75;4973103;28;20047;-70
2022/05/05 06:28:13;;;;;;;4.60;1.10;;;;;;;15.03;48.49;100525.97;4972736;28;20050;-71
2022/05/05 06:30:41;;;;;;;2.13;0.70;;;;;;;15.04;49.14;100517.25;4973231;28;20484;-71
2022/05/05 06:33:09;;;;;;;1.05;0.73;;;;;;;15.08;48.86;100526.84;4972969;28;20477;-70
2022/05/05 06:35:38;;;;;;;2.15;0.73;;;;;;;15.09;48.32;100533.81;4972957;28;20134;-71
2022/05/05 06:38:06;;;;;;;2.55;0.80;;;;;;;15.02;47.90;100529.41;4973278;28;20520;-71
2022/05/05 06:40:37;;;;;;;2.72;1.02;;;;;;;14.98;47.46;100528.53;4973150;28;20078;-72
2022/05/05 06:43:05;;;;;;;3.38;2.05;;;;;;;14.88;46.73;100530.16;4976666;28;20057;-72
2022/05/05 06:45:33;;;;;;;2.95;0.73;;;;;;;14.83;47.55;100524.03;4973366;28;20126;-71
2022/05/05 06:48:02;;;;;;;3.53;0.88;;;;;;;14.80;48.10;100525.78;4972011;28;20050;-71
2022/05/05 06:50:30;;;;;;;5.43;1.05;;;;;;;14.75;47.22;100532.66;4973171;28;20055;-71
2022/05/05 06:53:00;;;;;;;3.55;0.85;;;;;;;14.72;48.29;100528.28;4971321;28;20050;-71
2022/05/05 06:55:28;;;;;;;2.75;1.10;;;;;;;14.71;47.40;100529.16;4972461;28;20130;-71
2022/05/05 06:57:58;;;;;;;2.67;0.85;;;;;;;14.67;48.52;100524.78;4971880;28;20054;-70
2022/05/05 07:01:51;;;;;;;3.75;0.85;;;;;;;14.68;53.43;100525.66;4972213;28;20074;-70
2022/05/05 07:03:16;;;;;;;3.42;1.05;;;;;;;14.60;47.89;100518.63;4972531;28;20298;-71
2022/05/05 07:05:43;;;;;;;4.78;0.90;;;;;;;14.51;48.91;100522.88;4971929;28;20113;-69
2022/05/05 07:08:12;;;;;;;4.45;1.15;;;;;;;14.43;44.55;100531.47;4971886;28;20053;-70
2022/05/05 07:10:54;;;;;;;3.05;1.17;;;;;;;14.40;46.98;100535.75;4971977;28;20650;-70
2022/05/05 07:13:33;;;;;;;6.28;1.13;;;;;;;14.33;44.27;100539.16;4971963;28;20062;-71
2022/05/05 07:16:02;;;;;;;1.90;0.80;;;;;;;14.27;45.43;100528.69;4972875;28;20050;-70
2022/05/05 07:18:30;;;;;;;1.92;0.90;;;;;;;14.22;45.25;100532.13;4971658;28;20043;-70
2022/05/05 07:20:59;;;;;;;3.10;0.90;;;;;;;14.17;42.57;100532.91;4971744;28;20086;-70
2022/05/05 07:23:27;;;;;;;1.40;0.60;;;;;;;14.13;43.59;100531.13;4971106;28;20133;-69
2022/05/05 07:25:55;;;;;;;1.80;0.85;;;;;;;14.06;43.47;100534.53;4971478;28;20069;-70
2022/05/05 07:28:26;;;;;;;3.70;0.93;;;;;;;14.03;43.08;100531.03;4971494;28;20500;-70
2022/05/05 07:30:54;;;;;;;2.25;0.60;;;;;;;14.06;44.27;100527.56;4972156;28;20508;-70
2022/05/05 07:33:25;;;;;;;1.20;0.75;;;;;;;14.08;45.15;100525.00;4971391;28;20078;-69
2022/05/05 07:35:53;;;;;;;1.50;0.50;;;;;;;14.12;49.96;100538.06;4972053;28;20308;-69
2022/05/05 07:38:22;;;;;;;2.28;0.85;;;;;;;14.15;52.59;100537.22;4974763;28;20117;-69
2022/05/05 07:40:51;;;;;;;2.20;0.82;;;;;;;14.08;49.43;100533.69;4973098;28;20449;-70
2022/05/05 07:43:19;;;;;;;2.45;0.80;;;;;;;13.99;53.45;100529.22;4971623;28;20059;-70
2022/05/05 07:45:50;;;;;;;1.63;0.50;;;;;;;13.88;50.00;100530.84;4971358;28;20412;-71
2022/05/05 07:48:19;;;;;;;3.10;0.77;;;;;;;13.83;49.33;100529.91;4971423;28;20142;-70
2022/05/05 07:50:48;;;;;;;2.83;0.90;;;;;;;13.77;49.02;100528.13;4971474;28;20051;-70
2022/05/05 07:53:17;;;;;;;2.15;0.77;;;;;;;13.72;47.22;100539.28;4970880;28;20141;-70
2022/05/05 07:55:45;;;;;;;1.55;0.50;;;;;;;13.71;47.13;100543.63;4970924;28;20536;-70
2022/05/05 07:58:14;;;;;;;3.25;1.10;;;;;;;13.72;46.24;100549.69;4971308;28;20046;-70
2022/05/05 08:00:42;;;;;;;2.13;0.98;;;;;;;13.75;47.19;100541.94;4971463;28;20047;-70
2022/05/05 08:03:13;;;;;;;5.95;0.93;;;;;;;13.72;42.58;100539.28;4971253;28;20051;-69
2022/05/05 08:05:41;;;;;;;1.90;0.75;;;;;;;13.69;44.84;100539.25;4971149;28;20086;-70
2022/05/05 08:08:10;;;;;;;3.60;0.57;;;;;;;13.61;43.58;100537.44;4970813;28;20141;-70
2022/05/05 08:10:38;;;;;;;1.58;0.73;;;;;;;13.61;42.83;100540.03;4971284;28;20055;-71
2022/05/05 08:13:07;;;;;;;2.80;0.68;;;;;;;13.58;40.58;100539.09;4970783;28;20066;-70
2022/05/05 08:15:36;;;;;;;0.95;0.70;;;;;;;13.59;40.37;100535.69;4971407;28;20055;-71
2022/05/05 08:18:04;;;;;;;1.60;0.70;;;;;;;13.62;47.57;100530.50;4970151;28;20500;-70
2022/05/05 08:20:34;;;;;;;2.75;0.77;;;;;;;13.65;45.07;100532.28;4971555;28;20054;-71
2022/05/05 08:23:03;;;;;;;4.88;0.75;;;;;;;13.60;44.43;100530.47;4970409;28;20129;-71
2022/05/05 08:28:33;;;;;;;0.85;0.50;;;;;;;13.51;40.66;100538.16;4971001;28;20057;-70
2022/05/05 08:31:02;;;;;;;2.85;0.75;;;;;;;13.49;41.38;100534.69;4971165;28;20122;-70
2022/05/05 08:33:30;;;;;;;1.42;0.85;;;;;;;13.46;41.24;100537.22;4973476;28;20058;-71
2022/05/05 08:36:01;;;;;;;2.95;0.70;;;;;;;13.43;42.46;100542.38;4971376;28;20054;-70
2022/05/05 08:38:29;;;;;;;3.72;0.80;;;;;;;13.36;41.67;100543.16;4971578;28;20110;-70
2022/05/05 08:40:58;;;;;;;2.58;0.65;;;;;;;13.31;41.53;100531.78;4970961;28;20146;-70
2022/05/05 08:43:36;;;;;;;1.35;0.60;;;;;;;13.29;42.01;100543.91;4970607;28;20613;-70
2022/05/05 08:46:05;;;;;;;1.98;0.93;;;;;;;13.27;41.20;100535.19;4970260;28;20051;-70
2022/05/05 08:48:35;;;;;;;2.40;0.80;;;;;;;13.19;42.47;100528.16;4969796;28;20133;-70
2022/05/05 08:51:07;;;;;;;3.03;0.95;;;;;;;13.11;45.45;100523.69;4970341;28;20555;-71
2022/05/05 08:53:36;;;;;;;2.53;0.55;;;;;;;13.02;42.31;100519.22;4970305;28;20051;-71
2022/05/05 08:56:06;;;;;;;4.20;0.77;;;;;;;12.96;43.64;100516.50;4970743;28;20053;-71
2022/05/05 08:58:35;;;;;;;4.32;0.85;;;;;;;12.95;43.41;100512.19;4970457;28;20047;-69
2022/05/05 09:01:03;;;;;;;1.83;1.10;;;;;;;12.96;44.65;100504.41;4970302;28;20058;-70
2022/05/05 09:03:33;;;;;;;1.35;0.70;;;;;;;13.01;48.82;100512.28;4970043;28;20082;-70
2022/05/05 09:06:01;;;;;;;1.58;0.73;;;;;;;13.06;49.07;100505.44;4970659;28;20055;-70
2022/05/05 09:08:33;;;;;;;0.75;0.55;;;;;;;13.07;48.62;100501.09;4970052;28;20166;-70
2022/05/05 09:11:02;;;;;;;2.00;1.02;;;;;;;13.05;48.75;100493.28;4970333;28;20061;-70
2022/05/05 09:13:32;;;;;;;3.35;1.05;;;;;;;13.05;50.06;100493.28;4968828;28;20137;-70
2022/05/05 09:16:14;;;;;;;1.75;0.73;;;;;;;13.05;47.85;100487.22;4972586;28;20133;-70
2022/05/05 09:18:42;;;;;;;5.10;1.03;;;;;;;12.99;47.18;100488.88;4969924;28;20149;-70
2022/05/05 09:21:11;;;;;;;1.33;0.68;;;;;;;12.97;46.11;100494.91;4970357;28;20079;-70
2022/05/05 09:24:34;;;;;;;2.70;0.40;;;;;;;12.90;46.43;100493.94;4981414;28;20054;-70
2022/05/05 09:26:31;;;;;;;1.95;0.73;;;;;;;12.82;50.54;100489.44;4989365;28;20408;-70
2022/05/05 09:29:00;;;;;;;1.25;0.60;;;;;;;12.75;50.32;100484.16;4991632;28;20046;-70
2022/05/05 09:31:28;;;;;;;4.60;0.77;;;;;;;12.71;52.55;100471.09;4991063;28;20127;-70
2022/05/05 09:33:57;;;;;;;3.72;0.80;;;;;;;12.70;51.34;100467.63;4989608;28;20050;-68
2022/05/05 09:36:28;;;;;;;2.97;0.65;;;;;;;12.74;51.25;100464.25;4989207;28;20050;-71
2022/05/05 09:39:00;;;;;;;1.70;0.50;;;;;;;12.79;51.35;100454.81;4989719;28;20086;-71
2022/05/05 09:41:29;;;;;;;3.20;0.73;;;;;;;12.82;51.09;100468.69;4988907;28;20086;-70
2022/05/05 09:44:00;;;;;;;2.90;0.63;;;;;;;12.75;46.41;100463.38;4988710;28;20053;-70
2022/05/05 09:46:32;;;;;;;3.00;0.52;;;;;;;12.67;45.98;100470.19;4988787;28;20151;-71
2022/05/05 09:49:07;;;;;;;;;;;;;;;12.65;44.31;100465.81;4989311;28;20481;-70
2022/05/05 09:51:39;;;;;;;4.78;0.60;;;;;;;12.65;43.32;100455.44;4988958;28;19979;-69
2022/05/05 09:59:49;;;;;;;1.67;0.50;;;;;;;12.64;47.93;100453.69;4989026;28;20530;-69
2022/05/05 10:04:00;;;;;;;5.00;0.88;;;;;;;12.65;47.71;100463.22;5235421;23;20058;-74
2022/05/05 10:05:17;;;;;;;1.75;0.60;;;;;;;12.64;45.92;100458.88;4981758;28;20051;-73
2022/05/05 10:07:46;;;;;;;1.08;0.82;;;;;;;12.63;44.20;100451.94;4973354;28;20058;-74
2022/05/05 10:10:18;;;;;;;1.35;1.05;;;;;;;12.63;46.22;100441.56;4974922;28;20104;-74
2022/05/05 10:12:47;;;;;;;2.87;0.60;;;;;;;12.61;48.26;100470.09;4968853;28;20167;-76
2022/05/05 10:15:16;;;;;;;0.98;0.50;;;;;;;12.54;46.43;100447.47;4969558;28;20506;-73
2022/05/05 10:17:46;;;;;;;1.50;0.55;;;;;;;12.55;50.12;100446.59;4968638;28;20050;-73
2022/05/05 10:20:15;;;;;;;2.20;0.60;;;;;;;12.57;52.63;100452.72;4987167;28;20054;-73
2022/05/05 10:22:51;;;;;;;2.67;0.60;;;;;;;12.50;51.93;100437.88;4987563;28;20466;-73
2022/05/05 10:25:27;;;;;;;2.30;0.57;;;;;;;12.48;53.31;100442.16;4988902;28;20137;-74
2022/05/05 10:27:56;;;;;;;1.40;0.45;;;;;;;12.46;48.74;100454.25;4989041;28;20506;-75
2022/05/05 10:30:36;;;;;;;2.30;0.75;;;;;;;12.40;52.20;100434.28;4981614;28;20047;-74
2022/05/05 10:33:06;;;;;;;1.70;0.50;;;;;;;12.39;50.33;100403.09;4988711;28;20050;-74
2022/05/05 10:35:47;;;;;;;2.92;0.60;;;;;;;12.35;49.42;100390.09;4988472;28;20050;-73
2022/05/05 10:38:42;;;;;;;0.93;0.55;;;;;;;12.34;48.85;100388.31;4988461;28;20088;-73
2022/05/05 10:41:40;;;;;;;2.28;0.60;;;;;;;12.22;47.24;100403.69;4988784;28;20093;-75
2022/05/05 10:44:22;;;;;;;5.68;0.57;;;;;;;12.19;46.47;100393.28;4988592;28;20055;-74
2022/05/05 10:47:02;;;;;;;3.07;0.70;;;;;;;12.14;46.58;100397.53;4988738;28;20058;-75
2022/05/05 10:49:48;;;;;;;1.45;0.60;;;;;;;12.14;48.42;100384.56;4988871;28;20058;-74
2022/05/05 10:52:30;;;;;;;3.10;0.50;;;;;;;12.07;50.96;100393.03;4988264;28;20125;-76
2022/05/05 10:55:19;;;;;;;0.40;0.37;;;;;;;12.00;53.32;100388.59;4969138;28;20051;-76
2022/05/05 10:57:49;;;;;;;1.25;1.00;;;;;;;11.97;53.19;100383.38;4972650;28;20297;-76
2022/05/05 11:00:19;;;;;;;2.00;0.50;;;;;;;11.97;53.59;100378.19;4972857;28;20061;-76
2022/05/05 11:03:18;;;;;;;0.77;0.40;;;;;;;12.00;53.26;100371.31;4981653;28;20068;-75
2022/05/05 11:05:46;;;;;;;1.70;0.50;;;;;;;12.01;55.25;100372.22;4999874;28;20114;-74
2022/05/05 11:08:35;;;;;;;1.30;0.45;;;;;;;12.00;53.27;100349.72;5012357;28;20046;-75
2022/05/05 11:21:32;;;;;;;0.80;0.47;;;;;;;11.98;54.97;100339.34;5011801;28;20707;-75
2022/05/05 11:22:46;;;;;;;1.20;0.40;;;;;;;11.93;56.76;100334.06;5011123;28;20061;-75
2022/05/05 11:25:17;;;;;;;1.15;0.70;;;;;;;11.86;54.94;100339.94;5007071;28;20049;-74
2022/05/05 11:27:46;;;;;;;3.13;0.47;;;;;;;11.73;53.01;100351.81;5008820;28;20057;-75
2022/05/05 11:30:17;;;;;;;1.25;0.40;;;;;;;11.69;56.93;100369.88;5011279;28;20038;-75
2022/05/05 11:32:46;;;;;;;2.88;0.70;;;;;;;11.68;57.74;100412.16;5010404;28;20541;-75
2022/05/05 11:35:20;;;;;;;2.08;0.50;;;;;;;11.56;57.08;100409.34;5010516;28;20057;-76
2022/05/05 11:37:49;;;;;;;4.88;1.00;;;;;;;11.58;56.31;100420.63;5010378;28;20136;-79
2022/05/05 11:40:18;;;;;;;2.45;0.80;;;;;;;11.52;57.66;100435.22;5010539;28;20041;-76
2022/05/05 11:45:37;;;;;;;1.23;0.60;;;;;;;11.25;59.79;100432.91;5009616;28;20104;-76
2022/05/05 11:48:17;;;;;;;0.93;0.50;;;;;;;11.14;60.83;100420.56;5010106;28;20056;-76
2022/05/05 11:50:45;;;;;;;4.35;0.85;;;;;;;11.04;61.54;100428.13;5010228;28;20073;-77
2022/05/05 11:53:17;;;;;;;3.63;0.75;;;;;;;11.03;62.70;100428.97;5009942;28;20042;-76
2022/05/05 11:55:46;;;;;;;1.05;0.60;;;;;;;10.97;62.46;100415.91;5010228;28;20052;-76
2022/05/05 12:01:36;;;;;;;1.60;1.05;;;;;;;10.90;63.77;100438.19;5010032;28;20506;-77
2022/05/05 12:04:05;;;;;;;3.88;1.00;;;;;;;10.81;67.11;100416.38;5013459;28;20061;-76
2022/05/05 12:06:33;;;;;;;7.13;0.88;;;;;;;10.79;70.38;100423.22;5010780;28;20447;-76
2022/05/05 12:09:02;;;;;;;2.13;0.50;;;;;;;10.72;71.59;100413.56;5010602;28;20097;-77
2022/05/05 12:11:31;;;;;;;0.50;0.30;;;;;;;10.65;72.94;100416.03;5010683;28;20136;-77
2022/05/05 12:14:05;;;;;;;2.15;0.82;;;;;;;10.64;71.96;100428.91;5009637;28;20096;-76
2022/05/05 12:16:36;;;;;;;1.40;1.00;;;;;;;10.62;72.98;100431.47;5010022;28;20149;-76
2022/05/05 12:19:12;;;;;;;1.35;0.70;;;;;;;10.61;74.41;100416.78;5010189;28;20054;-77
2022/05/05 12:21:53;;;;;;;3.60;1.00;;;;;;;10.62;75.13;100417.66;5009880;28;20125;-77